Decoded Metar for LFQQ (LILLE in FRANCE) (IATA:LIL) | Meteo·Mobile Aviation Weather
aviador You're here:

LFQQ Decoded Metar

LILLE in FRANCE
Report Time2019-09-23 09:30:00
UTC Time2019-09-23 09:48:50
Flight Rules mvfr MVFR
Wind220° at 12 kt
W.Decomp.*RWY 20: 11.3 kt HW 4.1 kt RCW
RWY 26: 9.2 kt HW 7.7 kt LCW
Visibility9999 m
Phenomena:N/A
Clouds:Broken 020 Hf
Expected CloudBase > 2,000 ft AGL from Temp-Dew spread
Ceiling2,000 ft
Temp18°C (ISA +3)
Dew Point13°C (73% RH)
AAT14.6°C
QNH1014 hPa
Density Alt732 ft
Elevation171 ft
Report Wrong Elevation
Raw Report
LFQQ 230930Z AUTO 22012KT 190V250 9999 BKN020 18/13 Q1014
NOSIG=

Extra information for LFQQ:More info

Metar Taf Metar & Taf Last 4 Metars F.Rules Stats Wind Profile Meteogram Temp Stats Airport Information Weather charts Add Link Nearby VenuesMetar ALERT Operation Metar Decoded Social comments